sensor_id;sensor_type;location;lat;lon;timestamp;temperature;humidity
13796;SHT30;40911;51.552;9.874;2022-11-18T00:02:21;6.11;99.99
13796;SHT30;40911;51.552;9.874;2022-11-18T00:04:42;6.13;99.99
13796;SHT30;40911;51.552;9.874;2022-11-18T00:07:04;6.17;99.99
13796;SHT30;40911;51.552;9.874;2022-11-18T00:09:26;6.13;99.93
13796;SHT30;40911;51.552;9.874;2022-11-18T00:11:48;6.14;99.93
13796;SHT30;40911;51.552;9.874;2022-11-18T00:14:35;6.17;99.93
13796;SHT30;40911;51.552;9.874;2022-11-18T00:16:59;6.18;99.90
13796;SHT30;40911;51.552;9.874;2022-11-18T00:19:22;6.20;99.83
13796;SHT30;40911;51.552;9.874;2022-11-18T00:21:44;6.21;99.98
13796;SHT30;40911;51.552;9.874;2022-11-18T00:24:06;6.16;99.75
13796;SHT30;40911;51.552;9.874;2022-11-18T00:26:28;6.18;99.60
13796;SHT30;40911;51.552;9.874;2022-11-18T00:28:50;6.20;99.68
13796;SHT30;40911;51.552;9.874;2022-11-18T00:31:13;6.21;99.78
13796;SHT30;40911;51.552;9.874;2022-11-18T00:33:36;6.21;99.84
13796;SHT30;40911;51.552;9.874;2022-11-18T00:35:58;6.20;99.79
13796;SHT30;40911;51.552;9.874;2022-11-18T00:38:20;6.16;99.74
13796;SHT30;40911;51.552;9.874;2022-11-18T00:40:42;6.16;99.92
13796;SHT30;40911;51.552;9.874;2022-11-18T00:43:03;6.16;99.83
13796;SHT30;40911;51.552;9.874;2022-11-18T00:45:24;6.20;99.73
13796;SHT30;40911;51.552;9.874;2022-11-18T00:47:46;6.17;99.71
13796;SHT30;40911;51.552;9.874;2022-11-18T00:50:09;6.14;99.80
13796;SHT30;40911;51.552;9.874;2022-11-18T00:52:31;6.16;99.82
13796;SHT30;40911;51.552;9.874;2022-11-18T00:54:53;6.11;99.85
13796;SHT30;40911;51.552;9.874;2022-11-18T00:57:14;6.11;99.87
13796;SHT30;40911;51.552;9.874;2022-11-18T00:59:36;6.09;99.83
13796;SHT30;40911;51.552;9.874;2022-11-18T01:01:58;6.09;99.85
13796;SHT30;40911;51.552;9.874;2022-11-18T01:04:19;6.10;99.78
13796;SHT30;40911;51.552;9.874;2022-11-18T01:06:43;6.11;99.89
13796;SHT30;40911;51.552;9.874;2022-11-18T01:09:04;6.11;99.89
13796;SHT30;40911;51.552;9.874;2022-11-18T01:11:26;6.14;99.81
13796;SHT30;40911;51.552;9.874;2022-11-18T01:14:06;6.11;99.80
13796;SHT30;40911;51.552;9.874;2022-11-18T01:16:27;6.14;99.85
13796;SHT30;40911;51.552;9.874;2022-11-18T01:18:50;6.16;99.95
13796;SHT30;40911;51.552;9.874;2022-11-18T01:21:12;6.17;99.84
13796;SHT30;40911;51.552;9.874;2022-11-18T01:23:34;6.17;99.83
13796;SHT30;40911;51.552;9.874;2022-11-18T01:25:56;6.16;99.86
13796;SHT30;40911;51.552;9.874;2022-11-18T01:28:18;6.14;99.81
13796;SHT30;40911;51.552;9.874;2022-11-18T01:30:40;6.16;99.78
13796;SHT30;40911;51.552;9.874;2022-11-18T01:33:03;6.17;99.82
13796;SHT30;40911;51.552;9.874;2022-11-18T01:35:25;6.20;99.75
13796;SHT30;40911;51.552;9.874;2022-11-18T01:37:47;6.18;99.79
13796;SHT30;40911;51.552;9.874;2022-11-18T01:40:10;6.14;99.93
13796;SHT30;40911;51.552;9.874;2022-11-18T01:42:33;6.16;99.99
13796;SHT30;40911;51.552;9.874;2022-11-18T01:45:05;6.16;99.98
13796;SHT30;40911;51.552;9.874;2022-11-18T01:47:31;6.17;99.97
13796;SHT30;40911;51.552;9.874;2022-11-18T01:49:55;6.20;99.99
13796;SHT30;40911;51.552;9.874;2022-11-18T01:52:19;6.21;99.99
13796;SHT30;40911;51.552;9.874;2022-11-18T01:54:44;6.24;99.99
13796;SHT30;40911;51.552;9.874;2022-11-18T01:57:12;6.28;99.99
13796;SHT30;40911;51.552;9.874;2022-11-18T01:59:38;6.21;99.99
13796;SHT30;40911;51.552;9.874;2022-11-18T02:02:05;6.25;99.99
13796;SHT30;40911;51.552;9.874;2022-11-18T02:04:27;6.27;99.99
13796;SHT30;40911;51.552;9.874;2022-11-18T02:06:50;6.30;99.99
13796;SHT30;40911;51.552;9.874;2022-11-18T02:09:12;6.28;99.99
13796;SHT30;40911;51.552;9.874;2022-11-18T02:11:35;6.27;99.99
13796;SHT30;40911;51.552;9.874;2022-11-18T02:14:18;6.28;99.96
13796;SHT30;40911;51.552;9.874;2022-11-18T02:16:51;6.30;99.99
13796;SHT30;40911;51.552;9.874;2022-11-18T02:19:31;6.27;99.99
13796;SHT30;40911;51.552;9.874;2022-11-18T02:22:03;6.25;99.99
13796;SHT30;40911;51.552;9.874;2022-11-18T02:24:40;6.27;99.90
13796;SHT30;40911;51.552;9.874;2022-11-18T02:30:01;6.32;99.99
13796;SHT30;40911;51.552;9.874;2022-11-18T02:32:29;6.32;99.99
13796;SHT30;40911;51.552;9.874;2022-11-18T02:34:58;6.37;99.99
13796;SHT30;40911;51.552;9.874;2022-11-18T02:37:25;6.37;99.99
13796;SHT30;40911;51.552;9.874;2022-11-18T02:39:53;6.38;99.99
13796;SHT30;40911;51.552;9.874;2022-11-18T02:42:18;6.37;99.99
13796;SHT30;40911;51.552;9.874;2022-11-18T02:44:44;6.40;99.99
13796;SHT30;40911;51.552;9.874;2022-11-18T02:47:10;6.41;99.99
13796;SHT30;40911;51.552;9.874;2022-11-18T02:49:37;6.42;99.99
13796;SHT30;40911;51.552;9.874;2022-11-18T02:52:00;6.42;99.99
13796;SHT30;40911;51.552;9.874;2022-11-18T02:54:23;6.46;99.99
13796;SHT30;40911;51.552;9.874;2022-11-18T02:56:48;6.46;99.99
13796;SHT30;40911;51.552;9.874;2022-11-18T02:59:16;6.46;99.99
13796;SHT30;40911;51.552;9.874;2022-11-18T03:01:39;6.48;99.99
13796;SHT30;40911;51.552;9.874;2022-11-18T03:04:02;6.53;99.99
13796;SHT30;40911;51.552;9.874;2022-11-18T03:06:28;6.53;99.99
13796;SHT30;40911;51.552;9.874;2022-11-18T03:09:05;6.56;99.99
13796;SHT30;40911;51.552;9.874;2022-11-18T03:11:30;6.59;99.99
13796;SHT30;40911;51.552;9.874;2022-11-18T03:14:04;6.61;99.99
13796;SHT30;40911;51.552;9.874;2022-11-18T03:16:32;6.64;99.99
13796;SHT30;40911;51.552;9.874;2022-11-18T03:19:01;6.53;99.99
13796;SHT30;40911;51.552;9.874;2022-11-18T03:21:32;6.58;99.99
13796;SHT30;40911;51.552;9.874;2022-11-18T03:24:00;6.61;99.99
13796;SHT30;40911;51.552;9.874;2022-11-18T03:26:28;6.58;99.99
13796;SHT30;40911;51.552;9.874;2022-11-18T03:28:57;6.64;99.99
13796;SHT30;40911;51.552;9.874;2022-11-18T03:31:25;6.62;99.99
13796;SHT30;40911;51.552;9.874;2022-11-18T03:33:51;6.68;99.99
13796;SHT30;40911;51.552;9.874;2022-11-18T03:36:16;6.69;99.99
13796;SHT30;40911;51.552;9.874;2022-11-18T03:38:45;6.69;99.99
13796;SHT30;40911;51.552;9.874;2022-11-18T03:41:09;6.71;99.99
13796;SHT30;40911;51.552;9.874;2022-11-18T03:43:35;6.67;99.99
13796;SHT30;40911;51.552;9.874;2022-11-18T03:46:02;6.71;99.99
13796;SHT30;40911;51.552;9.874;2022-11-18T03:48:29;6.71;99.99
13796;SHT30;40911;51.552;9.874;2022-11-18T03:50:55;6.71;99.99
13796;SHT30;40911;51.552;9.874;2022-11-18T03:53:19;6.75;99.99
13796;SHT30;40911;51.552;9.874;2022-11-18T03:55:46;6.73;99.99
13796;SHT30;40911;51.552;9.874;2022-11-18T03:58:12;6.78;99.99
13796;SHT30;40911;51.552;9.874;2022-11-18T04:00:38;6.79;99.99
13796;SHT30;40911;51.552;9.874;2022-11-18T04:03:01;6.79;99.99
13796;SHT30;40911;51.552;9.874;2022-11-18T04:05:24;6.76;99.99
13796;SHT30;40911;51.552;9.874;2022-11-18T04:07:54;6.75;99.99
13796;SHT30;40911;51.552;9.874;2022-11-18T04:10:18;6.75;99.99
13796;SHT30;40911;51.552;9.874;2022-11-18T04:12:44;6.76;99.99
13796;SHT30;40911;51.552;9.874;2022-11-18T04:15:07;6.76;99.99
13796;SHT30;40911;51.552;9.874;2022-11-18T04:17:29;6.76;99.99
13796;SHT30;40911;51.552;9.874;2022-11-18T04:19:50;6.75;99.99
13796;SHT30;40911;51.552;9.874;2022-11-18T04:22:13;6.73;99.99
13796;SHT30;40911;51.552;9.874;2022-11-18T04:24:35;6.76;99.99
13796;SHT30;40911;51.552;9.874;2022-11-18T04:26:57;6.80;99.99
13796;SHT30;40911;51.552;9.874;2022-11-18T04:29:20;6.82;99.99
13796;SHT30;40911;51.552;9.874;2022-11-18T04:31:42;6.85;99.99
13796;SHT30;40911;51.552;9.874;2022-11-18T04:34:04;6.82;99.99
13796;SHT30;40911;51.552;9.874;2022-11-18T04:36:25;6.82;99.99
13796;SHT30;40911;51.552;9.874;2022-11-18T04:38:47;6.80;99.99
13796;SHT30;40911;51.552;9.874;2022-11-18T04:41:09;6.80;99.99
13796;SHT30;40911;51.552;9.874;2022-11-18T04:43:30;6.80;99.99
13796;SHT30;40911;51.552;9.874;2022-11-18T04:45:53;6.83;99.99
13796;SHT30;40911;51.552;9.874;2022-11-18T04:48:15;6.82;99.99
13796;SHT30;40911;51.552;9.874;2022-11-18T04:50:38;6.85;99.99
13796;SHT30;40911;51.552;9.874;2022-11-18T04:53:00;6.85;99.99
13796;SHT30;40911;51.552;9.874;2022-11-18T04:55:21;6.85;99.99
13796;SHT30;40911;51.552;9.874;2022-11-18T04:57:43;6.83;99.99
13796;SHT30;40911;51.552;9.874;2022-11-18T05:00:05;6.83;99.99
13796;SHT30;40911;51.552;9.874;2022-11-18T05:02:29;6.88;99.99
13796;SHT30;40911;51.552;9.874;2022-11-18T05:04:50;6.85;99.99
13796;SHT30;40911;51.552;9.874;2022-11-18T05:07:13;6.86;99.99
13796;SHT30;40911;51.552;9.874;2022-11-18T05:09:35;6.86;99.99
13796;SHT30;40911;51.552;9.874;2022-11-18T05:11:56;6.85;99.99
13796;SHT30;40911;51.552;9.874;2022-11-18T05:14:36;6.85;99.99
13796;SHT30;40911;51.552;9.874;2022-11-18T05:17:01;6.83;99.99
13796;SHT30;40911;51.552;9.874;2022-11-18T05:19:25;6.82;99.99
13796;SHT30;40911;51.552;9.874;2022-11-18T05:21:47;6.89;99.99
13796;SHT30;40911;51.552;9.874;2022-11-18T05:24:08;6.88;99.99
13796;SHT30;40911;51.552;9.874;2022-11-18T05:26:30;6.88;99.99
13796;SHT30;40911;51.552;9.874;2022-11-18T05:28:52;6.90;99.99
13796;SHT30;40911;51.552;9.874;2022-11-18T05:31:15;6.89;99.99
13796;SHT30;40911;51.552;9.874;2022-11-18T05:33:37;6.93;99.99
13796;SHT30;40911;51.552;9.874;2022-11-18T05:36:03;6.88;99.99
13796;SHT30;40911;51.552;9.874;2022-11-18T05:38:25;6.92;99.99
13796;SHT30;40911;51.552;9.874;2022-11-18T05:40:46;6.93;99.99
13796;SHT30;40911;51.552;9.874;2022-11-18T05:43:08;6.92;99.99
13796;SHT30;40911;51.552;9.874;2022-11-18T05:45:32;6.90;99.99
13796;SHT30;40911;51.552;9.874;2022-11-18T05:47:54;6.89;99.99
13796;SHT30;40911;51.552;9.874;2022-11-18T05:50:23;6.95;99.99
13796;SHT30;40911;51.552;9.874;2022-11-18T05:52:47;6.92;99.99
13796;SHT30;40911;51.552;9.874;2022-11-18T05:55:09;6.93;99.99
13796;SHT30;40911;51.552;9.874;2022-11-18T05:57:32;6.95;99.99
13796;SHT30;40911;51.552;9.874;2022-11-18T05:59:54;6.95;99.99
13796;SHT30;40911;51.552;9.874;2022-11-18T06:02:17;6.93;99.99
13796;SHT30;40911;51.552;9.874;2022-11-18T06:04:43;6.95;99.99
13796;SHT30;40911;51.552;9.874;2022-11-18T06:07:08;6.95;99.99
13796;SHT30;40911;51.552;9.874;2022-11-18T06:09:35;6.89;99.99
13796;SHT30;40911;51.552;9.874;2022-11-18T06:11:59;6.89;99.99
13796;SHT30;40911;51.552;9.874;2022-11-18T06:14:25;6.93;99.99
13796;SHT30;40911;51.552;9.874;2022-11-18T06:16:52;6.88;99.99
13796;SHT30;40911;51.552;9.874;2022-11-18T06:19:15;6.88;99.99
13796;SHT30;40911;51.552;9.874;2022-11-18T06:21:37;6.89;99.99
13796;SHT30;40911;51.552;9.874;2022-11-18T06:23:59;6.90;99.99
13796;SHT30;40911;51.552;9.874;2022-11-18T06:26:23;6.88;99.99
13796;SHT30;40911;51.552;9.874;2022-11-18T06:28:45;6.92;99.99
13796;SHT30;40911;51.552;9.874;2022-11-18T06:31:09;6.90;99.99
13796;SHT30;40911;51.552;9.874;2022-11-18T06:33:30;6.90;99.99
13796;SHT30;40911;51.552;9.874;2022-11-18T06:35:52;6.89;99.99
13796;SHT30;40911;51.552;9.874;2022-11-18T06:38:14;6.92;99.99
13796;SHT30;40911;51.552;9.874;2022-11-18T06:40:35;6.85;99.99
13796;SHT30;40911;51.552;9.874;2022-11-18T06:43:02;6.89;99.99
13796;SHT30;40911;51.552;9.874;2022-11-18T06:45:42;6.90;99.99
13796;SHT30;40911;51.552;9.874;2022-11-18T06:48:24;6.88;99.99
13796;SHT30;40911;51.552;9.874;2022-11-18T06:50:46;6.86;99.99
13796;SHT30;40911;51.552;9.874;2022-11-18T06:53:07;6.83;99.99
13796;SHT30;40911;51.552;9.874;2022-11-18T06:55:29;6.86;99.99
13796;SHT30;40911;51.552;9.874;2022-11-18T06:57:51;6.83;99.99
13796;SHT30;40911;51.552;9.874;2022-11-18T07:00:15;6.83;99.99
13796;SHT30;40911;51.552;9.874;2022-11-18T07:02:37;6.83;99.99
13796;SHT30;40911;51.552;9.874;2022-11-18T07:04:59;6.83;99.99
13796;SHT30;40911;51.552;9.874;2022-11-18T07:07:21;6.80;99.97
13796;SHT30;40911;51.552;9.874;2022-11-18T07:09:43;6.80;99.96
13796;SHT30;40911;51.552;9.874;2022-11-18T07:12:05;6.78;99.99
13796;SHT30;40911;51.552;9.874;2022-11-18T07:14:26;6.79;99.99
13796;SHT30;40911;51.552;9.874;2022-11-18T07:16:49;6.79;99.99
13796;SHT30;40911;51.552;9.874;2022-11-18T07:19:12;6.76;99.99
13796;SHT30;40911;51.552;9.874;2022-11-18T07:21:34;6.80;99.99
13796;SHT30;40911;51.552;9.874;2022-11-18T07:23:56;6.78;99.99
13796;SHT30;40911;51.552;9.874;2022-11-18T07:26:18;6.80;99.99
13796;SHT30;40911;51.552;9.874;2022-11-18T07:28:40;6.73;99.99
13796;SHT30;40911;51.552;9.874;2022-11-18T07:31:02;6.75;99.99
13796;SHT30;40911;51.552;9.874;2022-11-18T07:33:26;6.78;99.94
13796;SHT30;40911;51.552;9.874;2022-11-18T07:35:47;6.76;99.98
13796;SHT30;40911;51.552;9.874;2022-11-18T07:38:09;6.79;99.95
13796;SHT30;40911;51.552;9.874;2022-11-18T07:40:31;6.78;99.99
13796;SHT30;40911;51.552;9.874;2022-11-18T07:42:53;6.78;99.99
13796;SHT30;40911;51.552;9.874;2022-11-18T07:45:14;6.76;99.94
13796;SHT30;40911;51.552;9.874;2022-11-18T07:47:36;6.78;99.90
13796;SHT30;40911;51.552;9.874;2022-11-18T07:49:59;6.73;99.94
13796;SHT30;40911;51.552;9.874;2022-11-18T07:52:21;6.72;99.93
13796;SHT30;40911;51.552;9.874;2022-11-18T07:54:42;6.76;99.97
13796;SHT30;40911;51.552;9.874;2022-11-18T07:57:04;6.73;99.95
13796;SHT30;40911;51.552;9.874;2022-11-18T07:59:26;6.76;99.99
13796;SHT30;40911;51.552;9.874;2022-11-18T08:01:48;6.79;99.99
13796;SHT30;40911;51.552;9.874;2022-11-18T08:04:10;6.80;99.89
13796;SHT30;40911;51.552;9.874;2022-11-18T08:06:34;6.72;99.91
13796;SHT30;40911;51.552;9.874;2022-11-18T08:08:56;6.72;99.92
13796;SHT30;40911;51.552;9.874;2022-11-18T08:11:18;6.76;99.90
13796;SHT30;40911;51.552;9.874;2022-11-18T08:13:39;6.75;99.97
13796;SHT30;40911;51.552;9.874;2022-11-18T08:16:02;6.72;99.99
13796;SHT30;40911;51.552;9.874;2022-11-18T08:18:24;6.75;99.99
13796;SHT30;40911;51.552;9.874;2022-11-18T08:20:46;6.73;99.91
13796;SHT30;40911;51.552;9.874;2022-11-18T08:23:09;6.73;99.89
13796;SHT30;40911;51.552;9.874;2022-11-18T08:25:31;6.75;99.90
13796;SHT30;40911;51.552;9.874;2022-11-18T08:27:53;6.73;99.91
13796;SHT30;40911;51.552;9.874;2022-11-18T08:30:15;6.73;99.86
13796;SHT30;40911;51.552;9.874;2022-11-18T08:32:36;6.72;99.88
13796;SHT30;40911;51.552;9.874;2022-11-18T08:34:58;6.73;99.83
13796;SHT30;40911;51.552;9.874;2022-11-18T08:37:20;6.73;99.85
13796;SHT30;40911;51.552;9.874;2022-11-18T08:39:43;6.73;99.81
13796;SHT30;40911;51.552;9.874;2022-11-18T08:42:05;6.75;99.75
13796;SHT30;40911;51.552;9.874;2022-11-18T08:44:26;6.80;99.68
13796;SHT30;40911;51.552;9.874;2022-11-18T08:46:50;6.76;99.58
13796;SHT30;40911;51.552;9.874;2022-11-18T08:49:12;6.72;99.24
13796;SHT30;40911;51.552;9.874;2022-11-18T08:51:34;6.67;99.12
13796;SHT30;40911;51.552;9.874;2022-11-18T08:53:55;6.75;99.07
13796;SHT30;40911;51.552;9.874;2022-11-18T08:56:20;6.72;98.92
13796;SHT30;40911;51.552;9.874;2022-11-18T08:58:43;6.71;98.84
13796;SHT30;40911;51.552;9.874;2022-11-18T09:01:05;6.80;98.93
13796;SHT30;40911;51.552;9.874;2022-11-18T09:03:27;6.80;98.81
13796;SHT30;40911;51.552;9.874;2022-11-18T09:05:49;6.83;98.82
13796;SHT30;40911;51.552;9.874;2022-11-18T09:08:11;6.85;99.00
13796;SHT30;40911;51.552;9.874;2022-11-18T09:10:32;6.79;98.86
13796;SHT30;40911;51.552;9.874;2022-11-18T09:12:55;6.65;98.48
13796;SHT30;40911;51.552;9.874;2022-11-18T09:15:17;6.72;98.61
13796;SHT30;40911;51.552;9.874;2022-11-18T09:17:39;6.65;98.44
13796;SHT30;40911;51.552;9.874;2022-11-18T09:20:01;6.67;98.46
13796;SHT30;40911;51.552;9.874;2022-11-18T09:22:22;6.71;98.54
13796;SHT30;40911;51.552;9.874;2022-11-18T09:24:44;6.68;98.55
13796;SHT30;40911;51.552;9.874;2022-11-18T09:27:06;6.61;98.41
13796;SHT30;40911;51.552;9.874;2022-11-18T09:29:30;6.55;98.30
13796;SHT30;40911;51.552;9.874;2022-11-18T09:31:53;6.56;98.35
13796;SHT30;40911;51.552;9.874;2022-11-18T09:34:15;6.48;98.22
13796;SHT30;40911;51.552;9.874;2022-11-18T09:36:37;6.53;98.35
13796;SHT30;40911;51.552;9.874;2022-11-18T09:38:58;6.61;98.41
13796;SHT30;40911;51.552;9.874;2022-11-18T09:41:42;6.49;98.30
13796;SHT30;40911;51.552;9.874;2022-11-18T09:44:12;6.52;98.30
13796;SHT30;40911;51.552;9.874;2022-11-18T09:46:47;6.48;98.23
13796;SHT30;40911;51.552;9.874;2022-11-18T09:49:24;6.42;98.28
13796;SHT30;40911;51.552;9.874;2022-11-18T09:51:49;6.46;98.41
13796;SHT30;40911;51.552;9.874;2022-11-18T09:54:15;6.46;98.35
13796;SHT30;40911;51.552;9.874;2022-11-18T09:56:39;6.55;98.58
13796;SHT30;40911;51.552;9.874;2022-11-18T09:59:02;6.53;98.48
13796;SHT30;40911;51.552;9.874;2022-11-18T10:01:24;6.35;98.63
13796;SHT30;40911;51.552;9.874;2022-11-18T10:03:48;6.49;98.62
13796;SHT30;40911;51.552;9.874;2022-11-18T10:06:19;6.48;98.53
13796;SHT30;40911;51.552;9.874;2022-11-18T10:08:46;6.52;98.51
13796;SHT30;40911;51.552;9.874;2022-11-18T10:11:14;6.35;98.42
13796;SHT30;40911;51.552;9.874;2022-11-18T10:13:47;6.35;98.64
13796;SHT30;40911;51.552;9.874;2022-11-18T10:16:21;6.42;98.68
13796;SHT30;40911;51.552;9.874;2022-11-18T10:18:54;6.25;98.67
13796;SHT30;40911;51.552;9.874;2022-11-18T10:21:25;6.23;98.50
13796;SHT30;40911;51.552;9.874;2022-11-18T10:23:51;6.34;98.50
13796;SHT30;40911;51.552;9.874;2022-11-18T10:26:15;6.24;98.50
13796;SHT30;40911;51.552;9.874;2022-11-18T10:28:50;6.24;98.54
13796;SHT30;40911;51.552;9.874;2022-11-18T10:31:12;6.21;98.43
13796;SHT30;40911;51.552;9.874;2022-11-18T10:33:34;6.21;98.46
13796;SHT30;40911;51.552;9.874;2022-11-18T10:36:11;6.17;98.31
13796;SHT30;40911;51.552;9.874;2022-11-18T10:38:38;6.25;98.22
13796;SHT30;40911;51.552;9.874;2022-11-18T10:41:01;6.14;98.17
13796;SHT30;40911;51.552;9.874;2022-11-18T10:43:41;6.11;98.64
13796;SHT30;40911;51.552;9.874;2022-11-18T10:46:15;6.14;98.47
13796;SHT30;40911;51.552;9.874;2022-11-18T10:48:37;6.00;98.13
13796;SHT30;40911;51.552;9.874;2022-11-18T10:51:21;6.06;98.42
13796;SHT30;40911;51.552;9.874;2022-11-18T10:53:44;5.99;98.49
13796;SHT30;40911;51.552;9.874;2022-11-18T10:56:06;6.13;98.47
13796;SHT30;40911;51.552;9.874;2022-11-18T10:58:30;6.02;98.31
13796;SHT30;40911;51.552;9.874;2022-11-18T11:01:03;6.06;98.38
13796;SHT30;40911;51.552;9.874;2022-11-18T11:03:31;5.94;98.61
13796;SHT30;40911;51.552;9.874;2022-11-18T11:06:29;6.03;98.61
13796;SHT30;40911;51.552;9.874;2022-11-18T11:08:54;5.89;98.24
13796;SHT30;40911;51.552;9.874;2022-11-18T11:11:28;5.86;98.40
13796;SHT30;40911;51.552;9.874;2022-11-18T11:13:53;6.04;98.49
13796;SHT30;40911;51.552;9.874;2022-11-18T11:16:16;5.93;98.13
13796;SHT30;40911;51.552;9.874;2022-11-18T11:18:40;5.99;97.90
13796;SHT30;40911;51.552;9.874;2022-11-18T11:21:09;5.89;97.97
13796;SHT30;40911;51.552;9.874;2022-11-18T11:23:33;5.85;97.95
13796;SHT30;40911;51.552;9.874;2022-11-18T11:25:59;5.76;97.81
13796;SHT30;40911;51.552;9.874;2022-11-18T11:28:28;5.73;98.03
13796;SHT30;40911;51.552;9.874;2022-11-18T11:30:57;5.58;97.81
13796;SHT30;40911;51.552;9.874;2022-11-18T11:33:28;5.76;98.15
13796;SHT30;40911;51.552;9.874;2022-11-18T11:36:03;5.73;98.22
13796;SHT30;40911;51.552;9.874;2022-11-18T11:38:40;5.87;98.05
13796;SHT30;40911;51.552;9.874;2022-11-18T11:41:11;5.99;97.99
13796;SHT30;40911;51.552;9.874;2022-11-18T11:43:49;5.93;98.22
13796;SHT30;40911;51.552;9.874;2022-11-18T11:46:26;5.78;98.13
13796;SHT30;40911;51.552;9.874;2022-11-18T11:48:56;5.87;98.09
13796;SHT30;40911;51.552;9.874;2022-11-18T11:51:25;5.83;98.20
13796;SHT30;40911;51.552;9.874;2022-11-18T11:54:01;5.79;98.45
13796;SHT30;40911;51.552;9.874;2022-11-18T11:56:31;5.85;98.15
13796;SHT30;40911;51.552;9.874;2022-11-18T11:59:08;5.83;98.48
13796;SHT30;40911;51.552;9.874;2022-11-18T12:01:35;5.82;98.28
13796;SHT30;40911;51.552;9.874;2022-11-18T12:04:04;5.51;98.21
13796;SHT30;40911;51.552;9.874;2022-11-18T12:06:29;5.65;98.61
13796;SHT30;40911;51.552;9.874;2022-11-18T12:09:01;5.56;98.29
13796;SHT30;40911;51.552;9.874;2022-11-18T12:11:32;5.41;97.99
13796;SHT30;40911;51.552;9.874;2022-11-18T12:13:58;5.42;98.45
13796;SHT30;40911;51.552;9.874;2022-11-18T12:16:30;5.42;98.26
13796;SHT30;40911;51.552;9.874;2022-11-18T12:18:57;5.61;98.32
13796;SHT30;40911;51.552;9.874;2022-11-18T12:21:51;5.61;98.24
13796;SHT30;40911;51.552;9.874;2022-11-18T12:24:27;5.49;97.95
13796;SHT30;40911;51.552;9.874;2022-11-18T12:26:51;5.51;97.74
13796;SHT30;40911;51.552;9.874;2022-11-18T12:29:21;5.56;97.88
13796;SHT30;40911;51.552;9.874;2022-11-18T12:31:43;5.71;97.88
13796;SHT30;40911;51.552;9.874;2022-11-18T12:34:27;5.46;97.48
13796;SHT30;40911;51.552;9.874;2022-11-18T12:36:51;5.39;97.43
13796;SHT30;40911;51.552;9.874;2022-11-18T12:42:42;5.52;97.47
13796;SHT30;40911;51.552;9.874;2022-11-18T12:45:50;5.46;97.30
13796;SHT30;40911;51.552;9.874;2022-11-18T12:48:30;5.21;97.16
13796;SHT30;40911;51.552;9.874;2022-11-18T12:50:53;5.46;97.41
13796;SHT30;40911;51.552;9.874;2022-11-18T12:53:30;5.32;97.31
13796;SHT30;40911;51.552;9.874;2022-11-18T12:55:53;5.32;97.06
13796;SHT30;40911;51.552;9.874;2022-11-18T12:58:23;5.35;97.19
13796;SHT30;40911;51.552;9.874;2022-11-18T13:00:45;5.24;97.26
13796;SHT30;40911;51.552;9.874;2022-11-18T13:03:21;5.35;97.51
13796;SHT30;40911;51.552;9.874;2022-11-18T13:05:43;5.41;97.58
13796;SHT30;40911;51.552;9.874;2022-11-18T13:08:09;5.44;97.43
13796;SHT30;40911;51.552;9.874;2022-11-18T13:10:37;5.41;97.62
13796;SHT30;40911;51.552;9.874;2022-11-18T13:13:01;5.27;97.58
13796;SHT30;40911;51.552;9.874;2022-11-18T13:15:24;5.31;97.61
13796;SHT30;40911;51.552;9.874;2022-11-18T13:18:06;5.21;97.52
13796;SHT30;40911;51.552;9.874;2022-11-18T13:20:29;5.28;97.81
13796;SHT30;40911;51.552;9.874;2022-11-18T13:22:54;5.11;97.71
13796;SHT30;40911;51.552;9.874;2022-11-18T13:25:32;5.07;97.71
13796;SHT30;40911;51.552;9.874;2022-11-18T13:28:00;5.07;97.81
13796;SHT30;40911;51.552;9.874;2022-11-18T13:30:26;5.00;97.56
13796;SHT30;40911;51.552;9.874;2022-11-18T13:32:49;4.89;97.26
13796;SHT30;40911;51.552;9.874;2022-11-18T13:35:14;4.90;97.73
13796;SHT30;40911;51.552;9.874;2022-11-18T13:37:47;4.87;97.46
13796;SHT30;40911;51.552;9.874;2022-11-18T13:40:17;4.65;97.25
13796;SHT30;40911;51.552;9.874;2022-11-18T13:42:43;4.82;97.67
13796;SHT30;40911;51.552;9.874;2022-11-18T13:45:11;4.54;97.21
13796;SHT30;40911;51.552;9.874;2022-11-18T13:47:39;4.55;97.29
13796;SHT30;40911;51.552;9.874;2022-11-18T13:50:12;4.58;97.35
13796;SHT30;40911;51.552;9.874;2022-11-18T13:52:38;4.52;96.87
13796;SHT30;40911;51.552;9.874;2022-11-18T13:55:05;4.45;97.04
13796;SHT30;40911;51.552;9.874;2022-11-18T13:57:28;4.39;97.09
13796;SHT30;40911;51.552;9.874;2022-11-18T13:59:51;4.39;96.99
13796;SHT30;40911;51.552;9.874;2022-11-18T14:02:15;4.31;96.86
13796;SHT30;40911;51.552;9.874;2022-11-18T14:04:47;4.18;96.85
13796;SHT30;40911;51.552;9.874;2022-11-18T14:07:20;4.16;96.68
13796;SHT30;40911;51.552;9.874;2022-11-18T14:09:52;4.22;96.96
13796;SHT30;40911;51.552;9.874;2022-11-18T14:12:21;4.01;96.66
13796;SHT30;40911;51.552;9.874;2022-11-18T14:14:44;3.94;96.47
13796;SHT30;40911;51.552;9.874;2022-11-18T14:17:16;4.03;96.81
13796;SHT30;40911;51.552;9.874;2022-11-18T14:19:40;4.07;96.68
13796;SHT30;40911;51.552;9.874;2022-11-18T14:22:03;4.07;96.58
13796;SHT30;40911;51.552;9.874;2022-11-18T14:24:26;4.14;96.62
13796;SHT30;40911;51.552;9.874;2022-11-18T14:26:48;4.07;96.32
13796;SHT30;40911;51.552;9.874;2022-11-18T14:29:15;4.16;96.59
13796;SHT30;40911;51.552;9.874;2022-11-18T14:31:42;4.13;96.76
13796;SHT30;40911;51.552;9.874;2022-11-18T14:34:13;4.11;96.73
13796;SHT30;40911;51.552;9.874;2022-11-18T14:36:38;3.94;96.94
13796;SHT30;40911;51.552;9.874;2022-11-18T14:38:59;4.00;96.75
13796;SHT30;40911;51.552;9.874;2022-11-18T14:41:21;4.20;96.96
13796;SHT30;40911;51.552;9.874;2022-11-18T14:43:57;4.06;96.33
13796;SHT30;40911;51.552;9.874;2022-11-18T14:46:18;4.10;96.57
13796;SHT30;40911;51.552;9.874;2022-11-18T14:48:40;3.92;96.62
13796;SHT30;40911;51.552;9.874;2022-11-18T14:51:02;3.86;96.75
13796;SHT30;40911;51.552;9.874;2022-11-18T14:53:26;3.80;96.49
13796;SHT30;40911;51.552;9.874;2022-11-18T14:55:49;3.58;95.78
13796;SHT30;40911;51.552;9.874;2022-11-18T14:58:12;3.79;96.25
13796;SHT30;40911;51.552;9.874;2022-11-18T15:00:34;3.54;95.72
13796;SHT30;40911;51.552;9.874;2022-11-18T15:02:56;3.65;96.33
13796;SHT30;40911;51.552;9.874;2022-11-18T15:05:17;3.71;96.41
13796;SHT30;40911;51.552;9.874;2022-11-18T15:07:39;3.48;95.99
13796;SHT30;40911;51.552;9.874;2022-11-18T15:10:02;3.34;96.06
13796;SHT30;40911;51.552;9.874;2022-11-18T15:12:25;3.41;96.26
13796;SHT30;40911;51.552;9.874;2022-11-18T15:14:47;3.55;96.54
13796;SHT30;40911;51.552;9.874;2022-11-18T15:17:09;3.32;95.79
13796;SHT30;40911;51.552;9.874;2022-11-18T15:19:32;3.32;96.47
13796;SHT30;40911;51.552;9.874;2022-11-18T15:21:56;3.25;96.32
13796;SHT30;40911;51.552;9.874;2022-11-18T15:24:18;3.35;96.23
13796;SHT30;40911;51.552;9.874;2022-11-18T15:26:42;3.34;96.28
13796;SHT30;40911;51.552;9.874;2022-11-18T15:29:05;3.21;95.89
13796;SHT30;40911;51.552;9.874;2022-11-18T15:31:27;3.14;95.91
13796;SHT30;40911;51.552;9.874;2022-11-18T15:33:49;3.23;95.96
13796;SHT30;40911;51.552;9.874;2022-11-18T15:36:13;3.28;95.45
13796;SHT30;40911;51.552;9.874;2022-11-18T15:38:35;3.27;95.14
13796;SHT30;40911;51.552;9.874;2022-11-18T15:40:56;3.13;94.85